Terminal Aerodrome Forecast
Issued by NWS Flagstaff, AZ

Home | Current Version | Previous Version | Text Only | Print | Product List | Glossary On
Versions: 1 2 3 4 5 6 7 8 9 10 11 12 13 14 15 16 17 18 19 20
000
FTUS45 KFGZ 260711 AAA
TAFINW
TAF AMD
KINW 260711Z 2607/2706 VRB05KT P6SM BKN110
     FM262100 VRB06KT P6SM SCT080 BKN100
     FM270300 VRB05KT P6SM SCT100=

USA.gov is the U.S. government's official web portal to all federal, state and local government web resources and services.